Time;durP1;ratioP1;P1;durP2;ratioP2;P2;SDS_P1;SDS_P2;PMS_P1;PMS_P2;Temp;Humidity;BMP_temperature;BMP_pressure;BME280_temperature;BME280_humidity;BME280_pressure;Samples;Min_cycle;Max_cycle;Signal;HPM_P1;HPM_P2
2023/10/10 00:00:27;;;;;;;109.32;102.82;;;17.70;99.90;;;;;;4965656;28;20483;-69
2023/10/10 00:02:55;;;;;;;112.15;105.68;;;17.70;99.90;;;;;;4960045;28;20042;-70
2023/10/10 00:05:33;;;;;;;125.32;118.15;;;17.70;99.90;;;;;;4972657;28;20047;-70
2023/10/10 00:08:01;;;;;;;118.20;111.32;;;17.60;99.90;;;;;;4968907;28;20039;-70
2023/10/10 00:10:31;;;;;;;115.65;109.10;;;17.70;99.90;;;;;;4959997;28;20058;-70
2023/10/10 00:13:00;;;;;;;126.68;119.45;;;17.60;99.90;;;;;;4955057;28;20035;-70
2023/10/10 00:15:33;;;;;;;106.32;100.05;;;17.50;99.90;;;;;;4955235;28;20072;-70
2023/10/10 00:18:06;;;;;;;105.25;99.20;;;17.50;99.90;;;;;;4974226;28;20038;-70
2023/10/10 00:20:44;;;;;;;113.93;107.00;;;17.50;99.90;;;;;;4970221;28;20497;-70
2023/10/10 00:23:11;;;;;;;102.70;96.80;;;17.40;99.90;;;;;;4963807;28;20022;-69
2023/10/10 00:25:38;;;;;;;105.07;99.18;;;17.40;99.90;;;;;;4968680;28;20476;-70
2023/10/10 00:28:16;;;;;;;110.75;104.53;;;17.40;99.90;;;;;;4954668;28;20031;-70
2023/10/10 00:30:44;;;;;;;97.28;91.63;;;17.30;99.90;;;;;;4958017;28;20030;-70
2023/10/10 00:33:17;;;;;;;113.03;106.20;;;17.30;99.90;;;;;;4969920;28;20471;-70
2023/10/10 00:35:44;;;;;;;115.18;108.38;;;17.30;99.90;;;;;;4964133;28;20050;-70
2023/10/10 00:38:19;;;;;;;101.65;95.78;;;17.20;99.90;;;;;;4962501;28;20039;-70
2023/10/10 00:40:47;;;;;;;107.60;101.45;;;17.20;99.90;;;;;;4959070;28;20050;-69
2023/10/10 00:43:16;;;;;;;105.78;99.47;;;17.20;99.90;;;;;;4971216;28;20046;-69
2023/10/10 00:45:52;;;;;;;108.05;101.65;;;17.20;99.90;;;;;;4970459;28;20065;-70
2023/10/10 00:48:23;;;;;;;110.47;104.07;;;17.20;99.90;;;;;;4972571;28;20483;-69
2023/10/10 00:51:05;;;;;;;;;;;17.20;99.90;;;;;;4968721;28;20027;-69
2023/10/10 00:53:35;;;;;;;65.97;61.78;;;17.20;99.90;;;;;;4954506;28;20267;-70
2023/10/10 00:56:05;;;;;;;105.90;99.93;;;17.20;99.90;;;;;;4964820;28;20026;-69
2023/10/10 00:58:36;;;;;;;114.68;107.90;;;17.10;99.90;;;;;;4972071;28;20285;-70
2023/10/10 01:01:14;;;;;;;115.85;109.38;;;17.00;99.90;;;;;;4964158;28;20038;-70
2023/10/10 01:03:45;;;;;;;109.90;103.07;;;17.00;99.90;;;;;;4957208;28;20054;-70
2023/10/10 01:06:24;;;;;;;95.60;89.93;;;17.00;99.90;;;;;;4968443;28;20065;-70
2023/10/10 01:09:40;;;;;;;90.15;84.68;;;17.00;99.90;;;;;;4964695;28;20050;-69
2023/10/10 01:11:38;;;;;;;83.57;78.65;;;17.00;99.90;;;;;;4965080;28;20050;-70
2023/10/10 01:14:04;;;;;;;98.72;92.60;;;17.10;99.90;;;;;;4971133;28;20049;-70
2023/10/10 01:16:33;;;;;;;97.90;92.07;;;17.00;99.90;;;;;;4963573;28;20039;-69
2023/10/10 01:18:59;;;;;;;78.10;73.15;;;17.00;99.90;;;;;;4973610;28;20042;-70
2023/10/10 01:21:32;;;;;;;73.28;68.93;;;16.90;99.90;;;;;;4962618;28;20066;-70
2023/10/10 01:24:11;;;;;;;83.90;78.88;;;17.00;99.90;;;;;;4954020;28;20035;-70
2023/10/10 01:26:38;;;;;;;83.28;78.57;;;16.90;99.90;;;;;;4958391;28;20039;-70
2023/10/10 01:31:51;;;;;;;70.00;65.88;;;16.80;99.90;;;;;;4964369;28;20046;-70
2023/10/10 01:37:14;;;;;;;60.10;56.17;;;16.80;99.90;;;;;;4965662;28;20430;-69
2023/10/10 01:40:15;;;;;;;67.25;62.80;;;16.70;99.90;;;;;;4964616;28;20034;-70
2023/10/10 01:42:53;;;;;;;62.20;58.13;;;16.70;99.90;;;;;;4976501;28;20043;-70
2023/10/10 01:45:20;;;;;;;60.35;56.88;;;16.70;99.90;;;;;;4974473;28;20488;-70
2023/10/10 01:48:08;;;;;;;61.13;57.03;;;16.70;99.90;;;;;;4976885;28;20043;-69
2023/10/10 01:50:34;;;;;;;54.67;50.97;;;16.60;99.90;;;;;;4967457;28;20039;-69
2023/10/10 01:53:00;;;;;;;59.92;56.17;;;16.60;99.90;;;;;;4976741;28;20030;-70
2023/10/10 01:55:27;;;;;;;67.18;63.20;;;16.60;99.90;;;;;;4976525;28;20027;-70
2023/10/10 01:57:53;;;;;;;66.07;62.00;;;16.70;99.90;;;;;;4971900;28;20050;-70
2023/10/10 02:00:21;;;;;;;68.68;64.50;;;16.60;99.90;;;;;;4965373;28;20046;-70
2023/10/10 02:02:52;;;;;;;75.60;71.43;;;16.60;99.90;;;;;;4957330;28;20035;-69
2023/10/10 02:08:09;;;;;;;66.45;62.35;;;16.50;99.90;;;;;;4969931;28;20042;-70
2023/10/10 02:10:36;;;;;;;78.47;73.63;;;16.50;99.90;;;;;;4966035;28;20039;-69
2023/10/10 02:13:06;;;;;;;71.10;66.85;;;16.50;99.90;;;;;;4971925;28;20050;-70
2023/10/10 02:15:35;;;;;;;66.43;61.75;;;16.50;99.90;;;;;;4973003;28;20054;-70
2023/10/10 02:18:04;;;;;;;61.75;57.60;;;16.50;99.90;;;;;;4957708;28;20050;-70
2023/10/10 02:20:49;;;;;;;63.38;59.00;;;16.60;99.90;;;;;;4956846;28;20043;-70
2023/10/10 02:23:34;;;;;;;54.88;51.30;;;16.50;99.90;;;;;;4963979;28;20043;-70
2023/10/10 02:26:14;;;;;;;54.83;50.90;;;16.50;99.90;;;;;;4970100;28;20054;-70
2023/10/10 02:28:48;;;;;;;56.25;52.85;;;16.50;99.90;;;;;;4956717;28;20076;-70
2023/10/10 02:31:19;;;;;;;61.03;57.28;;;16.40;99.90;;;;;;4965362;28;20054;-70
2023/10/10 02:33:48;;;;;;;;;;;16.30;99.90;;;;;;4975177;28;20248;-69
2023/10/10 02:36:16;;;;;;;53.65;49.85;;;16.30;99.90;;;;;;4964912;28;19921;-70
2023/10/10 02:38:54;;;;;;;82.82;78.03;;;16.30;99.90;;;;;;4972050;28;20038;-70
2023/10/10 02:44:26;;;;;;;74.72;70.13;;;16.20;99.90;;;;;;4970444;28;20119;-69
2023/10/10 02:46:41;;;;;;;77.95;73.38;;;16.20;99.90;;;;;;4961280;28;20381;-70
2023/10/10 02:49:23;;;;;;;81.47;76.45;;;16.30;99.90;;;;;;4956617;28;20027;-70
2023/10/10 02:51:51;;;;;;;89.28;84.07;;;16.20;99.90;;;;;;4959989;28;20038;-70
2023/10/10 02:56:57;;;;;;;77.25;72.72;;;16.00;99.90;;;;;;4972951;28;20034;-70
2023/10/10 02:59:37;;;;;;;64.47;60.55;;;16.10;99.90;;;;;;4974723;28;20035;-70
2023/10/10 03:02:18;;;;;;;54.67;50.92;;;16.20;99.90;;;;;;4950222;28;20035;-70
2023/10/10 03:07:29;;;;;;;59.85;55.75;;;16.10;99.90;;;;;;4978571;28;20065;-69
2023/10/10 03:12:37;;;;;;;80.53;75.68;;;16.10;99.90;;;;;;4977671;28;20026;-69
2023/10/10 03:15:13;;;;;;;92.65;86.90;;;16.10;99.90;;;;;;4962035;28;20044;-69
2023/10/10 03:31:23;;;;;;;82.45;77.55;;;15.90;99.90;;;;;;4952544;28;20547;-72
2023/10/10 03:34:19;;;;;;;72.63;68.13;;;15.90;99.90;;;;;;4951937;28;20058;-72
2023/10/10 03:36:44;;;;;;;55.42;51.58;;;15.90;99.90;;;;;;4951826;29;20067;-72
2023/10/10 03:39:25;;;;;;;55.72;51.97;;;15.80;99.90;;;;;;4939320;29;20159;-72
2023/10/10 05:23:34;;;;;;;52.47;48.90;;;15.00;99.90;;;;;;4957935;29;20411;-72
2023/10/10 05:26:02;;;;;;;54.25;50.95;;;15.00;99.90;;;;;;4953786;28;20055;-71
2023/10/10 05:28:32;;;;;;;52.13;48.95;;;15.00;99.90;;;;;;4954183;28;20047;-71
2023/10/10 05:30:59;;;;;;;51.70;48.40;;;15.10;99.90;;;;;;4953216;28;20036;-72
2023/10/10 05:33:30;;;;;;;60.88;57.22;;;15.00;99.90;;;;;;4954064;28;20400;-72
2023/10/10 05:35:59;;;;;;;62.90;59.30;;;14.90;99.90;;;;;;4958408;28;20043;-72
2023/10/10 05:38:25;;;;;;;63.90;59.78;;;14.80;99.90;;;;;;4968320;28;20400;-71
2023/10/10 05:40:51;;;;;;;59.75;56.00;;;14.90;99.90;;;;;;4960483;28;20039;-72
2023/10/10 05:43:25;;;;;;;75.15;70.90;;;14.90;99.90;;;;;;4954105;28;20047;-71
2023/10/10 05:45:53;;;;;;;57.83;54.35;;;14.80;99.90;;;;;;4952896;28;20043;-72
2023/10/10 05:48:19;;;;;;;69.80;65.75;;;14.90;99.90;;;;;;4954228;28;20502;-72
2023/10/10 05:50:48;;;;;;;68.05;63.20;;;14.90;99.90;;;;;;4953273;28;20032;-72
2023/10/10 05:53:16;;;;;;;60.47;56.72;;;14.80;99.90;;;;;;4963562;28;20043;-72
2023/10/10 05:55:43;;;;;;;59.08;55.42;;;14.90;99.90;;;;;;4973232;28;20042;-72
2023/10/10 05:58:10;;;;;;;58.05;54.45;;;14.90;99.90;;;;;;4973072;28;20039;-71
2023/10/10 06:00:37;;;;;;;54.78;51.33;;;14.90;99.90;;;;;;4972571;28;20031;-71
2023/10/10 06:03:06;;;;;;;82.68;77.78;;;14.90;99.90;;;;;;4953418;28;20042;-71
2023/10/10 06:05:35;;;;;;;83.28;78.45;;;14.90;99.90;;;;;;4957083;28;20047;-72
2023/10/10 06:08:02;;;;;;;86.85;81.72;;;14.80;99.90;;;;;;4955798;28;20032;-71
2023/10/10 06:10:31;;;;;;;76.47;72.05;;;14.80;99.90;;;;;;4970709;28;20034;-72
2023/10/10 06:12:57;;;;;;;89.72;84.25;;;14.80;99.90;;;;;;4952613;28;20043;-72
2023/10/10 06:15:24;;;;;;;83.93;79.32;;;14.70;99.90;;;;;;4956199;28;20035;-72
2023/10/10 06:17:51;;;;;;;75.15;70.55;;;14.60;99.90;;;;;;4957052;29;20039;-71
2023/10/10 06:20:21;;;;;;;75.07;70.63;;;14.60;99.90;;;;;;4956953;28;20389;-71
2023/10/10 06:22:48;;;;;;;89.88;84.50;;;14.60;99.90;;;;;;4957071;28;20404;-71
2023/10/10 06:25:18;;;;;;;78.28;73.70;;;14.70;99.90;;;;;;4956374;28;20055;-72
2023/10/10 06:27:54;;;;;;;73.35;68.55;;;14.70;99.90;;;;;;4957142;28;20055;-72
2023/10/10 06:30:20;;;;;;;69.38;65.10;;;14.60;99.90;;;;;;4955196;28;20038;-72
2023/10/10 06:32:47;;;;;;;64.85;61.00;;;14.60;99.90;;;;;;4956587;28;20032;-72
2023/10/10 06:35:27;;;;;;;64.32;60.53;;;14.60;99.90;;;;;;4955410;28;20027;-73
2023/10/10 06:37:53;;;;;;;70.72;66.45;;;14.60;99.90;;;;;;4955239;28;20046;-72
2023/10/10 06:40:25;;;;;;;79.30;74.65;;;14.60;99.90;;;;;;4974694;28;20027;-72
2023/10/10 06:42:56;;;;;;;83.70;78.82;;;14.70;99.90;;;;;;4958274;28;20042;-72
2023/10/10 06:45:23;;;;;;;;;;;14.70;99.90;;;;;;4974102;28;20051;-72
2023/10/10 06:47:51;;;;;;;79.82;74.72;;;14.70;99.90;;;;;;4964740;28;19918;-72
2023/10/10 06:50:21;;;;;;;87.53;82.50;;;14.80;99.90;;;;;;4972081;28;20046;-72
2023/10/10 06:52:52;;;;;;;88.23;83.03;;;14.80;99.90;;;;;;4956222;28;20050;-72
2023/10/10 06:55:22;;;;;;;91.22;85.70;;;14.80;99.90;;;;;;4970292;28;20034;-72
2023/10/10 06:57:57;;;;;;;77.43;72.53;;;14.70;99.90;;;;;;4956368;28;20043;-72
2023/10/10 07:03:05;;;;;;;80.97;75.70;;;14.70;99.90;;;;;;4959648;28;20365;-73
2023/10/10 07:05:33;;;;;;;80.82;75.53;;;14.70;99.90;;;;;;4970336;28;20038;-73
2023/10/10 07:08:00;;;;;;;75.15;70.57;;;14.80;99.90;;;;;;4970119;28;20452;-72
2023/10/10 07:10:33;;;;;;;82.25;76.68;;;14.90;99.90;;;;;;4968571;28;20035;-72
2023/10/10 07:13:10;;;;;;;82.10;77.00;;;15.00;99.90;;;;;;4966667;28;20042;-72
2023/10/10 07:15:39;;;;;;;78.80;73.90;;;15.00;99.90;;;;;;4969937;28;20043;-72
2023/10/10 07:18:13;;;;;;;80.32;75.22;;;15.00;99.90;;;;;;4970927;28;20053;-72
2023/10/10 07:23:36;;;;;;;71.72;66.93;;;14.90;99.90;;;;;;4968257;28;20037;-72
2023/10/10 07:26:23;;;;;;;49.03;45.05;;;15.10;99.90;;;;;;4955170;28;20062;-72
2023/10/10 07:28:49;;;;;;;41.10;37.72;;;15.30;99.90;;;;;;4967322;28;20066;-72
2023/10/10 07:31:20;;;;;;;52.40;48.45;;;15.80;99.90;;;;;;4964230;28;20036;-72
2023/10/10 07:33:54;;;;;;;81.78;75.72;;;16.00;99.90;;;;;;4954280;29;20043;-71
2023/10/10 07:36:24;;;;;;;59.47;55.17;;;16.60;99.90;;;;;;4954086;28;20484;-71
2023/10/10 07:39:32;;;;;;;36.67;33.78;;;16.90;99.90;;;;;;4963456;28;20506;-71
2023/10/10 07:41:46;;;;;;;55.35;51.53;;;17.20;99.90;;;;;;4960990;28;20039;-71
2023/10/10 07:44:16;;;;;;;137.80;130.18;;;17.70;99.90;;;;;;4956008;28;20046;-72
2023/10/10 07:47:10;;;;;;;72.45;67.88;;;17.90;99.90;;;;;;4959576;28;20051;-67
2023/10/10 07:49:28;;;;;;;47.05;44.10;;;17.60;99.90;;;;;;4955782;28;20389;-66
2023/10/10 07:51:54;;;;;;;55.75;51.92;;;17.50;99.90;;;;;;4968863;28;20042;-66
2023/10/10 07:54:30;;;;;;;55.80;52.30;;;17.60;99.90;;;;;;4974042;28;20031;-66
2023/10/10 07:57:03;;;;;;;56.55;52.65;;;17.80;99.90;;;;;;4957643;28;20027;-66
2023/10/10 07:59:29;;;;;;;57.05;53.60;;;17.90;99.90;;;;;;4966314;28;20050;-66
2023/10/10 08:01:57;;;;;;;62.90;58.60;;;18.00;99.90;;;;;;4973464;28;20039;-69
2023/10/10 08:04:25;;;;;;;53.88;49.63;;;18.00;99.90;;;;;;4974199;28;20399;-69
2023/10/10 08:06:51;;;;;;;56.70;53.10;;;18.00;99.90;;;;;;4960711;28;20051;-69
2023/10/10 08:11:45;;;;;;;65.00;60.95;;;18.00;99.90;;;;;;4968015;28;20031;-69
2023/10/10 08:14:11;;;;;;;67.97;63.83;;;18.20;99.90;;;;;;4974109;28;20029;-70
2023/10/10 08:16:41;;;;;;;103.82;97.78;;;18.30;99.90;;;;;;4968913;28;20047;-69
2023/10/10 08:19:15;;;;;;;68.43;62.63;;;18.60;99.90;;;;;;4962893;28;20042;-69
2023/10/10 08:21:50;;;;;;;76.78;71.65;;;18.80;99.90;;;;;;4971092;28;20369;-69
2023/10/10 08:24:19;;;;;;;66.70;62.55;;;18.70;99.90;;;;;;4974285;28;20427;-69
2023/10/10 08:26:46;;;;;;;66.10;61.67;;;18.80;99.90;;;;;;4973014;28;20062;-73
2023/10/10 08:29:12;;;;;;;91.80;85.75;;;18.70;99.90;;;;;;4953160;28;20464;-69
2023/10/10 08:31:39;;;;;;;78.70;73.32;;;18.70;99.90;;;;;;4954086;28;20051;-71
2023/10/10 08:34:08;;;;;;;112.70;105.60;;;18.70;99.90;;;;;;4967495;28;20058;-71
2023/10/10 08:36:35;;;;;;;135.32;127.30;;;18.70;99.90;;;;;;4970720;28;20039;-71
2023/10/10 08:39:49;;;;;;;174.68;165.18;;;18.80;99.90;;;;;;4973686;28;20031;-71
2023/10/10 08:41:47;;;;;;;124.63;117.65;;;18.80;99.90;;;;;;4958408;28;20039;-71
2023/10/10 08:44:20;;;;;;;175.85;166.38;;;18.90;99.90;;;;;;4973497;28;20030;-71
2023/10/10 08:46:46;;;;;;;174.20;164.60;;;19.00;99.90;;;;;;4983190;28;20042;-71
2023/10/10 08:49:16;;;;;;;194.85;183.82;;;19.10;99.90;;;;;;4969725;28;20383;-71
2023/10/10 08:51:43;;;;;;;176.20;166.27;;;19.20;99.90;;;;;;4969474;28;20058;-71
2023/10/10 08:54:12;;;;;;;148.02;139.80;;;19.20;99.90;;;;;;4973530;28;20027;-71
2023/10/10 08:56:40;;;;;;;154.93;146.50;;;19.20;99.90;;;;;;4970107;28;20058;-71
2023/10/10 08:59:10;;;;;;;160.45;151.20;;;19.40;99.90;;;;;;4972992;28;20065;-71
2023/10/10 09:01:37;;;;;;;173.33;163.93;;;19.40;99.90;;;;;;4959888;28;20039;-71
2023/10/10 09:04:03;;;;;;;154.38;145.70;;;19.60;99.90;;;;;;4965649;28;20793;-72
2023/10/10 09:06:51;;;;;;;158.32;149.25;;;19.70;99.90;;;;;;4971312;28;20061;-72
2023/10/10 09:12:03;;;;;;;150.10;141.85;;;19.90;99.90;;;;;;4956970;28;20046;-72
2023/10/10 09:14:43;;;;;;;150.85;142.65;;;20.10;99.90;;;;;;4972291;28;20057;-72
2023/10/10 09:17:10;;;;;;;157.00;147.90;;;20.20;99.90;;;;;;4956864;28;20047;-72
2023/10/10 09:19:39;;;;;;;144.68;136.63;;;20.20;99.90;;;;;;4958387;28;20034;-72
2023/10/10 09:22:25;;;;;;;140.55;132.48;;;20.20;99.90;;;;;;4954373;28;20492;-72
2023/10/10 09:24:55;;;;;;;148.73;140.18;;;20.30;99.90;;;;;;4954580;28;20035;-72
2023/10/10 09:27:22;;;;;;;151.80;143.60;;;20.40;99.90;;;;;;4970431;28;20061;-72
2023/10/10 09:29:54;;;;;;;155.82;147.40;;;20.50;99.90;;;;;;4968443;28;20096;-72
2023/10/10 09:32:28;;;;;;;207.82;196.82;;;20.50;99.90;;;;;;4953008;28;20066;-72
2023/10/10 09:34:57;;;;;;;164.38;154.80;;;20.50;99.90;;;;;;4967340;28;20051;-72
2023/10/10 09:37:30;;;;;;;165.55;156.00;;;20.50;99.90;;;;;;4972695;28;20022;-72
2023/10/10 09:39:56;;;;;;;129.93;122.40;;;20.50;99.90;;;;;;4971120;28;20042;-72
2023/10/10 09:42:44;;;;;;;131.55;123.78;;;20.60;99.90;;;;;;4953996;28;20073;-73
2023/10/10 09:45:51;;;;;;;169.93;160.73;;;20.70;99.90;;;;;;4972876;28;20397;-71
2023/10/10 09:48:28;;;;;;;127.00;119.82;;;20.80;99.90;;;;;;4960535;28;20054;-71
2023/10/10 09:52:47;;;;;;;136.32;128.38;;;21.00;99.90;;;;;;4970081;28;20035;-71
2023/10/10 09:54:36;;;;;;;143.10;135.05;;;21.10;99.90;;;;;;4957657;28;20038;-71
2023/10/10 09:56:56;;;;;;;211.55;200.27;;;21.10;99.90;;;;;;4967036;28;20384;-71
2023/10/10 09:59:28;;;;;;;178.70;168.20;;;21.20;99.90;;;;;;4974216;28;20043;-71
2023/10/10 10:02:00;;;;;;;228.98;216.57;;;21.20;99.90;;;;;;4963644;28;20033;-71
2023/10/10 10:04:28;;;;;;;278.50;263.70;;;21.30;99.90;;;;;;4971973;28;20518;-72
2023/10/10 10:07:36;;;;;;;302.80;286.23;;;21.40;99.90;;;;;;4971446;28;20042;-71
2023/10/10 10:10:33;;;;;;;202.63;191.55;;;21.30;99.90;;;;;;4955471;29;20050;-71
2023/10/10 10:13:13;;;;;;;154.38;145.32;;;21.50;99.90;;;;;;4977627;28;20039;-71
2023/10/10 10:15:49;;;;;;;181.00;170.48;;;21.60;99.90;;;;;;4971837;28;20040;-71
2023/10/10 10:18:27;;;;;;;249.27;235.00;;;21.70;99.90;;;;;;4957377;29;20059;-71
2023/10/10 10:23:38;;;;;;;372.52;352.33;;;21.90;99.90;;;;;;4972922;28;20050;-71
2023/10/10 10:26:04;;;;;;;231.60;218.82;;;21.90;99.90;;;;;;4975227;28;20057;-71
2023/10/10 10:28:35;;;;;;;180.35;170.30;;;22.00;99.90;;;;;;4975975;28;20038;-71
2023/10/10 10:31:05;;;;;;;254.50;241.00;;;22.10;99.90;;;;;;4974596;28;20034;-71
2023/10/10 10:33:35;;;;;;;251.23;238.13;;;22.10;99.90;;;;;;4975832;28;20035;-71
2023/10/10 10:36:14;;;;;;;287.08;271.80;;;22.30;99.90;;;;;;4967774;28;20388;-71
2023/10/10 10:39:18;;;;;;;333.70;315.42;;;22.30;99.90;;;;;;4954915;28;20051;-71
2023/10/10 10:41:42;;;;;;;333.30;315.08;;;22.40;99.90;;;;;;4978288;28;20054;-71
2023/10/10 10:44:09;;;;;;;270.98;256.05;;;22.50;99.90;;;;;;4973518;28;20052;-71
2023/10/10 10:46:40;;;;;;;268.50;254.10;;;22.60;99.90;;;;;;4966996;28;20047;-71
2023/10/10 10:49:12;;;;;;;327.58;309.95;;;22.60;99.90;;;;;;4975046;28;20392;-71
2023/10/10 10:51:41;;;;;;;359.90;340.35;;;22.70;99.90;;;;;;4972011;28;20058;-71
2023/10/10 10:54:08;;;;;;;325.58;307.98;;;22.80;99.90;;;;;;4969874;28;20039;-71
2023/10/10 10:59:13;;;;;;;294.02;277.58;;;22.90;99.90;;;;;;4967156;28;20047;-71
2023/10/10 11:01:42;;;;;;;432.45;409.20;;;23.00;99.90;;;;;;4962030;28;20042;-71
2023/10/10 11:04:15;;;;;;;335.38;316.85;;;23.10;99.90;;;;;;4973056;28;20039;-72
2023/10/10 11:06:49;;;;;;;360.83;341.83;;;23.10;99.90;;;;;;4970005;28;20054;-72
2023/10/10 11:09:28;;;;;;;401.73;380.10;;;23.20;99.90;;;;;;4966940;28;20472;-71
2023/10/10 11:12:02;;;;;;;424.13;401.35;;;23.30;99.90;;;;;;4967934;28;20035;-72
2023/10/10 11:14:31;;;;;;;485.83;459.55;;;23.30;99.90;;;;;;4972149;28;20050;-72
2023/10/10 11:16:58;;;;;;;578.78;545.80;;;23.40;99.90;;;;;;4964418;28;20049;-72
2023/10/10 11:21:57;;;;;;;641.78;602.40;;;23.50;99.90;;;;;;4961826;28;20027;-71
2023/10/10 11:24:25;;;;;;;539.13;508.52;;;23.50;99.90;;;;;;4965621;28;20416;-71
2023/10/10 11:29:41;;;;;;;;;;;23.70;99.90;;;;;;4965614;28;20035;-71
2023/10/10 11:32:08;;;;;;;776.47;728.53;;;23.70;99.90;;;;;;4969027;28;19921;-71
2023/10/10 11:34:46;;;;;;;778.88;729.92;;;23.80;99.90;;;;;;4973698;28;20027;-71
2023/10/10 11:37:23;;;;;;;628.47;590.67;;;23.90;99.90;;;;;;4967936;28;20047;-71
2023/10/10 11:39:59;;;;;;;615.25;578.15;;;24.00;99.90;;;;;;4957982;28;20379;-70
2023/10/10 11:42:28;;;;;;;724.00;678.03;;;24.10;99.90;;;;;;4972600;28;20035;-71
2023/10/10 11:45:05;;;;;;;602.33;566.17;;;24.10;99.90;;;;;;4974646;28;20046;-71
2023/10/10 11:47:42;;;;;;;569.50;534.55;;;24.20;99.90;;;;;;4953486;28;20047;-71
2023/10/10 11:50:11;;;;;;;637.63;597.75;;;24.30;99.90;;;;;;4954179;29;20047;-71
2023/10/10 11:52:56;;;;;;;618.13;579.65;;;24.30;99.90;;;;;;4973357;28;20115;-71
2023/10/10 11:55:26;;;;;;;1999.90;999.90;;;24.40;99.90;;;;;;4973978;28;20042;-71
2023/10/10 11:57:58;;;;;;;1999.90;999.90;;;24.50;99.90;;;;;;4973813;28;20039;-71
2023/10/10 12:00:42;;;;;;;1999.90;999.90;;;24.60;99.90;;;;;;4972627;28;20042;-71
2023/10/10 12:03:13;;;;;;;1999.90;999.90;;;24.60;99.90;;;;;;4974269;28;20050;-70
2023/10/10 12:05:49;;;;;;;1999.90;999.90;;;24.80;99.90;;;;;;4973065;28;20053;-71
2023/10/10 12:08:16;;;;;;;1999.90;999.90;;;24.90;99.90;;;;;;4969704;28;20042;-71
2023/10/10 12:10:47;;;;;;;1999.90;999.90;;;25.00;99.90;;;;;;4970081;28;20031;-71
2023/10/10 12:13:19;;;;;;;1999.90;999.90;;;25.10;99.90;;;;;;4973897;28;20464;-71
2023/10/10 12:15:46;;;;;;;1999.90;999.90;;;25.30;99.90;;;;;;4973762;28;20043;-71
2023/10/10 12:18:13;;;;;;;1999.90;999.90;;;25.40;99.90;;;;;;4973882;28;20039;-71
2023/10/10 12:20:44;;;;;;;1999.90;999.90;;;25.40;99.90;;;;;;4973171;28;20034;-71
2023/10/10 12:23:13;;;;;;;1999.90;999.90;;;25.40;99.90;;;;;;4974088;28;20035;-70
2023/10/10 12:25:42;;;;;;;1999.90;999.90;;;25.60;99.90;;;;;;4969934;28;20498;-71
2023/10/10 12:28:18;;;;;;;1999.90;999.90;;;25.60;99.90;;;;;;4954504;29;20197;-71
2023/10/10 12:30:44;;;;;;;1999.90;999.90;;;25.70;99.90;;;;;;4972340;28;20031;-71
2023/10/10 12:33:16;;;;;;;1999.90;999.90;;;25.90;99.90;;;;;;4972916;28;20033;-70
2023/10/10 12:35:48;;;;;;;1999.90;999.90;;;26.00;99.90;;;;;;4972545;28;20377;-71
2023/10/10 12:38:20;;;;;;;1999.90;999.90;;;26.10;99.90;;;;;;4953600;28;20035;-71
2023/10/10 12:40:50;;;;;;;1999.90;999.90;;;26.20;99.90;;;;;;4962163;28;20047;-71
2023/10/10 12:43:17;;;;;;;1999.90;999.90;;;26.30;99.90;;;;;;4971085;28;20369;-71
2023/10/10 12:45:45;;;;;;;1999.90;999.90;;;26.40;99.40;;;;;;4971808;28;20027;-71
2023/10/10 12:48:20;;;;;;;1999.90;999.90;;;26.60;99.90;;;;;;4988461;28;20065;-71
2023/10/10 12:50:50;;;;;;;1999.90;999.90;;;26.70;98.70;;;;;;4968492;28;20387;-71
2023/10/10 12:53:19;;;;;;;1999.90;999.90;;;26.70;96.90;;;;;;4968687;28;20488;-70
2023/10/10 12:55:48;;;;;;;1999.90;999.90;;;26.70;97.50;;;;;;4969172;28;20050;-71
2023/10/10 12:58:22;;;;;;;1999.90;999.90;;;26.70;98.40;;;;;;4962860;28;20031;-71
2023/10/10 13:00:52;;;;;;;1999.90;999.90;;;26.80;97.90;;;;;;4971064;28;20037;-71
2023/10/10 13:03:19;;;;;;;1999.90;999.90;;;26.90;97.50;;;;;;4971744;28;20031;-71
2023/10/10 13:05:47;;;;;;;1999.90;999.90;;;27.00;97.80;;;;;;4966295;28;20365;-71
2023/10/10 13:08:15;;;;;;;1999.90;999.90;;;27.00;96.20;;;;;;4969872;28;20504;-71
2023/10/10 13:10:42;;;;;;;1999.90;999.90;;;27.00;96.80;;;;;;4956581;28;20038;-71
2023/10/10 13:13:08;;;;;;;1999.90;999.90;;;26.90;96.10;;;;;;4972096;28;20043;-70
2023/10/10 13:15:49;;;;;;;1999.90;999.90;;;27.00;96.60;;;;;;4971552;28;20385;-71
2023/10/10 13:18:22;;;;;;;1999.90;999.90;;;27.00;96.50;;;;;;4953720;28;20043;-71
2023/10/10 13:20:51;;;;;;;1999.90;999.90;;;27.00;95.40;;;;;;4965864;28;20368;-71
2023/10/10 13:23:18;;;;;;;1999.90;999.90;;;27.00;96.00;;;;;;4973577;28;20049;-71
2023/10/10 13:25:48;;;;;;;1999.90;999.90;;;27.10;95.80;;;;;;4969828;28;20391;-71
2023/10/10 13:28:20;;;;;;;1999.90;999.90;;;27.00;96.00;;;;;;4973084;28;20531;-71
2023/10/10 13:30:47;;;;;;;1999.90;999.90;;;27.10;96.00;;;;;;4969176;28;20042;-71
2023/10/10 13:33:16;;;;;;;1999.90;999.90;;;27.00;96.00;;;;;;4964332;28;20047;-71
2023/10/10 13:35:45;;;;;;;1999.90;999.90;;;27.10;96.30;;;;;;4973773;28;20023;-71
2023/10/10 13:38:12;;;;;;;1999.90;999.90;;;27.00;94.70;;;;;;4979693;28;20379;-71
2023/10/10 13:40:38;;;;;;;1999.90;999.90;;;27.00;94.90;;;;;;4961121;28;20051;-71
2023/10/10 13:43:08;;;;;;;1999.90;999.90;;;27.00;94.20;;;;;;4973830;28;20038;-71
2023/10/10 13:45:41;;;;;;;1999.90;999.90;;;27.00;94.10;;;;;;4974190;28;20042;-71
2023/10/10 13:48:13;;;;;;;1999.90;999.90;;;27.00;93.90;;;;;;4959458;29;20039;-71
2023/10/10 13:50:42;;;;;;;1999.90;999.90;;;27.00;94.10;;;;;;4951706;28;20477;-71
2023/10/10 13:53:12;;;;;;;1999.90;999.90;;;27.00;93.50;;;;;;4979394;28;20492;-71
2023/10/10 13:55:42;;;;;;;1999.90;999.90;;;26.90;93.70;;;;;;4974087;28;20066;-71
2023/10/10 13:58:16;;;;;;;1999.90;999.90;;;27.00;95.00;;;;;;4965201;28;20404;-71
2023/10/10 14:00:55;;;;;;;1999.90;999.90;;;27.00;94.20;;;;;;4973957;28;20047;-71
2023/10/10 14:03:29;;;;;;;1999.90;999.90;;;27.00;93.90;;;;;;4959244;28;20039;-71
2023/10/10 14:06:10;;;;;;;1999.90;999.90;;;26.90;93.00;;;;;;4958511;28;20043;-71
2023/10/10 14:08:36;;;;;;;1999.90;999.90;;;26.90;93.20;;;;;;4965631;28;20521;-71
2023/10/10 14:11:04;;;;;;;1999.90;999.90;;;26.90;91.40;;;;;;4978659;28;20514;-71
2023/10/10 14:13:30;;;;;;;1999.90;999.90;;;26.90;92.70;;;;;;4978963;28;20381;-71
2023/10/10 14:15:56;;;;;;;1999.90;999.90;;;26.80;92.90;;;;;;4971878;28;20042;-71
2023/10/10 14:18:29;;;;;;;1999.90;999.90;;;26.90;92.90;;;;;;4958630;29;20389;-71
2023/10/10 14:20:56;;;;;;;1999.90;999.90;;;26.90;92.10;;;;;;4959311;28;20043;-71
2023/10/10 14:23:24;;;;;;;1999.90;999.90;;;26.90;92.50;;;;;;4966626;28;20042;-72
2023/10/10 14:25:50;;;;;;;1999.90;999.90;;;26.90;92.70;;;;;;4973121;28;20489;-71
2023/10/10 14:28:18;;;;;;;1999.90;999.90;;;26.90;92.40;;;;;;4959846;29;20396;-71
2023/10/10 14:30:49;;;;;;;1999.90;999.90;;;26.80;91.70;;;;;;4958591;28;20031;-71
2023/10/10 14:33:18;;;;;;;1999.90;999.90;;;26.80;91.70;;;;;;4957989;28;20507;-71
2023/10/10 14:35:44;;;;;;;1999.90;999.90;;;26.70;91.70;;;;;;4960656;28;20370;-71
2023/10/10 14:38:15;;;;;;;1999.90;999.90;;;26.70;92.50;;;;;;4961831;28;20031;-71
2023/10/10 14:40:44;;;;;;;;;;;26.70;93.40;;;;;;4971753;28;20050;-71
2023/10/10 14:43:11;;;;;;;1999.90;999.90;;;26.80;92.30;;;;;;4956394;28;20098;-71
2023/10/10 14:45:42;;;;;;;1999.90;999.90;;;26.70;92.40;;;;;;4972366;28;20392;-73
2023/10/10 14:48:18;;;;;;;1999.90;999.90;;;26.80;93.40;;;;;;4966413;28;20071;-72
2023/10/10 14:50:52;;;;;;;1999.90;999.90;;;26.80;92.80;;;;;;4968115;28;20046;-72
2023/10/10 14:53:22;;;;;;;1999.90;999.90;;;26.70;92.60;;;;;;4975297;28;20031;-72
2023/10/10 14:55:51;;;;;;;1999.90;999.90;;;26.80;92.70;;;;;;4972406;28;20046;-72
2023/10/10 14:58:21;;;;;;;1999.90;999.90;;;26.70;92.50;;;;;;4954837;29;20380;-72
2023/10/10 15:00:50;;;;;;;1999.90;999.90;;;26.70;92.40;;;;;;4965625;28;20039;-72
2023/10/10 15:03:16;;;;;;;1999.90;999.90;;;26.60;92.20;;;;;;4959723;28;20046;-72
2023/10/10 15:05:51;;;;;;;1999.90;999.90;;;26.60;92.50;;;;;;4970570;28;20364;-72
2023/10/10 15:08:19;;;;;;;1999.90;999.90;;;26.60;92.80;;;;;;4970527;28;20047;-72
2023/10/10 15:10:46;;;;;;;1999.90;999.90;;;26.60;92.50;;;;;;4973647;28;20476;-72
2023/10/10 15:13:15;;;;;;;1999.90;999.90;;;26.60;91.80;;;;;;4974694;28;20107;-72